Time;durP1;ratioP1;P1;durP2;ratioP2;P2;SDS_P1;SDS_P2;PMS_P1;PMS_P2;Temp;Humidity;BMP_temperature;BMP_pressure;BME280_temperature;BME280_humidity;BME280_pressure;Samples;Min_cycle;Max_cycle;Signal;HPM_P1;HPM_P2
2022/12/12 00:00:37;;;;;;;26.63;17.73;;;3.10;99.90;;;;;;6166948;23;20017;-84
2022/12/12 00:03:05;;;;;;;28.25;18.80;;;3.20;99.90;;;;;;6169305;23;20029;-84
2022/12/12 00:05:32;;;;;;;31.70;19.90;;;3.30;99.90;;;;;;6169470;23;20037;-83
2022/12/12 00:08:00;;;;;;;33.75;21.27;;;3.30;99.90;;;;;;6169485;23;20041;-83
2022/12/12 00:10:27;;;;;;;31.60;19.88;;;3.30;99.90;;;;;;6168072;23;20338;-84
2022/12/12 00:12:56;;;;;;;30.80;19.92;;;3.20;99.90;;;;;;6131355;23;20454;-83
2022/12/12 00:15:24;;;;;;;26.08;17.85;;;3.20;99.90;;;;;;6167933;23;20034;-85
2022/12/12 00:17:51;;;;;;;23.52;17.08;;;3.20;99.90;;;;;;6168384;23;20076;-84
2022/12/12 00:20:19;;;;;;;21.20;15.55;;;3.10;99.90;;;;;;6167283;23;20013;-84
2022/12/12 00:22:46;;;;;;;22.98;17.20;;;3.00;99.90;;;;;;6167364;23;20022;-84
2022/12/12 00:25:14;;;;;;;25.85;19.15;;;2.90;99.90;;;;;;6169684;23;20028;-85
2022/12/12 00:27:41;;;;;;;28.05;20.95;;;2.90;99.90;;;;;;6170772;23;20013;-84
2022/12/12 00:30:12;;;;;;;30.33;20.92;;;2.80;99.90;;;;;;6167314;23;20045;-85
2022/12/12 00:32:39;;;;;;;32.55;21.50;;;2.80;99.90;;;;;;6168241;23;20450;-84
2022/12/12 00:35:07;;;;;;;25.33;18.42;;;2.70;99.90;;;;;;6169274;23;20025;-85
2022/12/12 00:37:35;;;;;;;24.80;18.50;;;2.60;99.90;;;;;;6169136;23;20021;-84
2022/12/12 00:40:03;;;;;;;24.00;17.55;;;2.50;99.90;;;;;;6168280;23;20013;-87
2022/12/12 00:42:30;;;;;;;25.90;18.65;;;2.50;99.90;;;;;;6168733;23;20390;-87
2022/12/12 00:44:58;;;;;;;24.02;18.75;;;2.40;99.90;;;;;;6156283;23;20080;-85
2022/12/12 00:47:27;;;;;;;26.63;19.23;;;2.40;99.90;;;;;;6167655;23;20449;-86
2022/12/12 00:49:54;;;;;;;23.92;18.52;;;2.40;99.90;;;;;;6167584;23;20017;-88
2022/12/12 00:52:22;;;;;;;24.30;17.98;;;2.40;99.90;;;;;;6167724;23;20020;-86
2022/12/12 00:54:49;;;;;;;25.55;18.15;;;2.40;99.90;;;;;;6167895;23;20060;-85
2022/12/12 00:57:16;;;;;;;21.02;16.65;;;2.50;99.90;;;;;;6131526;23;20028;-86
2022/12/12 00:59:44;;;;;;;24.88;18.50;;;2.40;99.90;;;;;;6167005;23;20013;-86
2022/12/12 01:02:12;;;;;;;24.38;17.77;;;2.30;99.90;;;;;;6167915;23;20029;-85
2022/12/12 01:04:40;;;;;;;28.65;21.45;;;2.30;99.90;;;;;;6167410;23;20505;-86
2022/12/12 01:07:08;;;;;;;33.13;24.02;;;2.30;99.90;;;;;;6155781;23;20512;-85
2022/12/12 01:09:35;;;;;;;33.55;23.55;;;2.30;99.90;;;;;;6166886;23;20465;-85
2022/12/12 01:12:03;;;;;;;33.03;22.48;;;2.40;99.90;;;;;;6168245;23;20020;-87
2022/12/12 01:14:31;;;;;;;35.28;24.40;;;2.40;99.90;;;;;;6168396;23;20044;-85
2022/12/12 01:16:58;;;;;;;35.42;24.65;;;2.30;99.90;;;;;;6156233;23;20509;-86
2022/12/12 01:19:26;;;;;;;32.83;22.90;;;2.30;99.90;;;;;;6130992;23;20028;-85
2022/12/12 01:21:55;;;;;;;30.75;21.95;;;2.30;99.90;;;;;;6167401;23;20017;-86
2022/12/12 01:24:22;;;;;;;30.42;22.45;;;2.40;99.90;;;;;;6156370;23;20017;-84
2022/12/12 01:26:51;;;;;;;28.60;19.85;;;2.30;99.90;;;;;;6156568;23;20032;-85
2022/12/12 01:29:18;;;;;;;27.45;19.98;;;2.30;99.90;;;;;;6132755;23;20096;-86
2022/12/12 01:31:46;;;;;;;28.30;19.92;;;2.20;99.90;;;;;;6158643;23;20018;-85
2022/12/12 01:34:13;;;;;;;24.88;18.63;;;2.20;99.90;;;;;;6169302;23;20013;-85
2022/12/12 01:36:40;;;;;;;21.75;15.07;;;2.20;99.90;;;;;;6158491;23;20027;-87
2022/12/12 01:39:09;;;;;;;19.60;12.95;;;2.10;99.90;;;;;;6170757;23;20009;-85
2022/12/12 01:41:37;;;;;;;15.02;11.90;;;2.10;99.90;;;;;;6187261;23;20036;-85
2022/12/12 01:44:27;;;;;;;16.65;11.13;;;2.00;99.90;;;;;;6178010;23;20021;-83
2022/12/12 01:46:54;;;;;;;14.63;10.52;;;2.10;99.90;;;;;;6173529;23;20080;-84
2022/12/12 01:49:24;;;;;;;12.73;9.13;;;2.10;99.90;;;;;;6167727;23;20013;-85
2022/12/12 01:51:55;;;;;;;12.60;9.25;;;2.10;99.90;;;;;;6156413;23;20027;-83
2022/12/12 01:54:27;;;;;;;14.82;9.80;;;2.00;99.90;;;;;;6155853;23;20017;-86
2022/12/12 01:56:57;;;;;;;13.38;9.82;;;2.00;99.90;;;;;;6167263;23;20021;-85
2022/12/12 01:59:26;;;;;;;12.43;9.55;;;2.00;99.90;;;;;;6166322;23;20018;-84
2022/12/12 02:01:55;;;;;;;12.68;9.35;;;2.00;99.90;;;;;;6166417;23;20021;-83
2022/12/12 02:04:24;;;;;;;12.80;9.55;;;2.00;99.90;;;;;;6167354;23;20013;-83
2022/12/12 02:06:56;;;;;;;12.23;9.02;;;2.00;99.90;;;;;;6167227;23;20068;-86
2022/12/12 02:09:25;;;;;;;13.05;8.98;;;2.00;99.90;;;;;;6166509;23;20452;-86
2022/12/12 02:11:55;;;;;;;13.10;9.10;;;2.00;99.90;;;;;;6167011;23;20037;-84
2022/12/12 02:14:26;;;;;;;13.30;9.25;;;2.00;99.90;;;;;;6167307;23;20024;-84
2022/12/12 02:17:15;;;;;;;15.70;9.93;;;1.90;99.90;;;;;;6168406;23;20018;-86
2022/12/12 02:20:21;;;;;;;14.35;10.18;;;2.00;99.90;;;;;;6154058;23;20473;-86
2022/12/12 02:23:15;;;;;;;86.43;43.13;;;2.00;99.90;;;;;;6167316;23;20017;-77
2022/12/12 02:26:05;;;;;;;14.40;9.90;;;2.00;99.90;;;;;;6141881;23;20252;-75
2022/12/12 02:29:13;;;;;;;13.80;9.57;;;2.00;99.90;;;;;;6166178;23;20025;-78
2022/12/12 02:31:51;;;;;;;13.90;9.55;;;2.00;99.90;;;;;;6178087;23;20383;-78
2022/12/12 02:34:29;;;;;;;14.15;9.65;;;2.00;99.90;;;;;;6167791;23;20028;-76
2022/12/12 02:37:04;;;;;;;16.30;10.57;;;2.00;99.90;;;;;;6167093;23;20089;-77
2022/12/12 02:39:39;;;;;;;15.13;10.10;;;2.00;99.90;;;;;;6166218;23;20021;-76
2022/12/12 02:42:17;;;;;;;15.00;10.15;;;2.10;99.90;;;;;;6166724;23;20020;-79
2022/12/12 02:44:56;;;;;;;18.55;12.02;;;2.00;99.90;;;;;;6166639;23;20017;-77
2022/12/12 02:47:29;;;;;;;16.95;10.45;;;2.10;99.90;;;;;;6166499;23;20080;-76
2022/12/12 02:50:02;;;;;;;18.50;11.55;;;2.00;99.90;;;;;;6166329;23;20501;-77
2022/12/12 02:52:29;;;;;;;17.95;12.23;;;1.90;99.90;;;;;;6166406;23;20013;-76
2022/12/12 02:54:57;;;;;;;15.35;10.80;;;1.80;99.90;;;;;;6166621;23;20017;-76
2022/12/12 02:57:26;;;;;;;18.73;12.02;;;1.70;99.90;;;;;;6165946;23;20021;-75
2022/12/12 02:59:56;;;;;;;16.08;11.27;;;1.80;99.90;;;;;;6165755;23;20443;-76
2022/12/12 03:07:45;;;;;;;17.35;11.35;;;1.80;99.90;;;;;;6166533;23;20041;-77
2022/12/12 03:08:48;;;;;;;17.13;11.63;;;2.00;99.90;;;;;;6170566;23;20462;-76
2022/12/12 03:11:27;;;;;;;17.27;11.68;;;2.00;99.90;;;;;;6153721;23;20093;-79
2022/12/12 03:13:59;;;;;;;17.67;12.15;;;2.00;99.90;;;;;;6189579;23;20014;-80
2022/12/12 03:16:31;;;;;;;16.58;11.27;;;2.00;99.90;;;;;;6190477;23;20012;-78
2022/12/12 03:19:09;;;;;;;17.30;11.80;;;2.10;99.90;;;;;;6181553;23;20018;-79
2022/12/12 03:21:41;;;;;;;20.27;13.32;;;2.20;99.90;;;;;;6166159;23;20021;-78
2022/12/12 03:24:14;;;;;;;18.15;12.73;;;2.20;99.90;;;;;;6166033;23;20013;-79
2022/12/12 03:26:47;;;;;;;21.40;12.95;;;2.30;99.90;;;;;;6166198;23;20021;-78
2022/12/12 03:29:17;;;;;;;16.05;11.52;;;2.20;99.90;;;;;;6165814;23;20265;-78
2022/12/12 03:31:49;;;;;;;19.33;11.85;;;2.30;99.90;;;;;;6167518;23;20073;-78
2022/12/12 03:34:20;;;;;;;17.92;12.48;;;2.30;99.90;;;;;;6167109;23;20018;-79
2022/12/12 03:36:52;;;;;;;19.63;13.13;;;2.30;99.90;;;;;;6166343;23;20024;-79
2022/12/12 03:39:25;;;;;;;18.60;13.38;;;2.30;99.90;;;;;;6165682;23;20258;-82
2022/12/12 03:41:58;;;;;;;17.45;12.18;;;2.30;99.90;;;;;;6165973;23;20025;-79
2022/12/12 03:44:31;;;;;;;19.08;13.10;;;2.30;99.90;;;;;;6167034;23;20032;-79
2022/12/12 03:47:04;;;;;;;18.40;12.63;;;2.30;99.90;;;;;;6166672;23;20017;-79
2022/12/12 03:49:40;;;;;;;21.48;14.45;;;2.30;99.90;;;;;;6166895;23;20080;-80
2022/12/12 03:52:14;;;;;;;24.38;15.32;;;2.20;99.90;;;;;;6131838;23;20018;-80
2022/12/12 03:54:48;;;;;;;20.45;14.45;;;2.20;99.90;;;;;;6146535;23;20022;-80
2022/12/12 03:57:21;;;;;;;23.00;16.38;;;2.20;99.90;;;;;;6190461;23;19998;-80
2022/12/12 03:59:53;;;;;;;21.20;13.73;;;2.20;99.90;;;;;;6188590;23;20009;-76
2022/12/12 04:02:27;;;;;;;19.75;13.63;;;2.20;99.90;;;;;;6174895;23;20040;-78
2022/12/12 04:05:04;;;;;;;19.80;13.35;;;2.30;99.90;;;;;;6168908;23;20025;-79
2022/12/12 04:07:36;;;;;;;20.17;13.98;;;2.20;99.90;;;;;;6166087;23;20021;-80
2022/12/12 04:12:58;;;;;;;;;;;2.10;99.90;;;;;;6176316;23;20048;-79
2022/12/12 04:15:51;;;;;;;17.48;13.23;;;2.20;99.90;;;;;;6171385;23;19924;-79
2022/12/12 04:18:26;;;;;;;18.67;13.88;;;2.20;99.90;;;;;;6168945;23;20461;-79
2022/12/12 04:24:00;;;;;;;15.48;11.50;;;1.80;99.90;;;;;;6179922;23;20041;-77
2022/12/12 04:26:40;;;;;;;15.98;12.20;;;1.70;99.90;;;;;;6167534;23;20017;-78
2022/12/12 04:29:28;;;;;;;15.38;11.02;;;1.70;99.90;;;;;;6166525;23;20028;-78
2022/12/12 04:32:03;;;;;;;15.57;10.95;;;1.70;99.90;;;;;;6132234;23;20084;-77
2022/12/12 04:34:38;;;;;;;17.10;11.97;;;1.70;99.90;;;;;;6131922;23;20022;-77
2022/12/12 04:37:09;;;;;;;23.63;16.15;;;1.70;99.90;;;;;;6155713;23;20437;-78
2022/12/12 04:39:41;;;;;;;20.85;14.68;;;1.80;99.90;;;;;;6167188;23;20017;-80
2022/12/12 04:42:11;;;;;;;17.25;12.13;;;1.90;99.90;;;;;;6167343;23;20037;-77
2022/12/12 04:44:41;;;;;;;20.15;13.23;;;1.90;99.90;;;;;;6166977;23;20017;-79
2022/12/12 04:47:11;;;;;;;16.90;12.23;;;2.00;99.90;;;;;;6131605;23;20021;-79
2022/12/12 04:49:43;;;;;;;14.98;11.43;;;2.10;99.90;;;;;;6169487;23;20045;-76
2022/12/12 04:52:13;;;;;;;18.30;12.52;;;2.10;99.90;;;;;;6171763;23;20021;-74
2022/12/12 04:54:47;;;;;;;15.80;11.48;;;2.10;99.90;;;;;;6166148;23;20021;-77
2022/12/12 04:57:20;;;;;;;17.98;11.85;;;2.10;99.90;;;;;;6166185;23;20018;-75
2022/12/12 04:59:48;;;;;;;15.82;11.82;;;2.00;99.90;;;;;;6181894;23;20056;-74
2022/12/12 05:02:21;;;;;;;18.27;12.68;;;2.00;99.90;;;;;;6175669;23;20037;-75
2022/12/12 05:04:54;;;;;;;20.17;14.32;;;2.00;99.90;;;;;;6166149;23;20013;-72
2022/12/12 05:07:29;;;;;;;23.27;14.82;;;1.80;99.90;;;;;;6166195;23;20014;-73
2022/12/12 05:09:59;;;;;;;21.75;14.35;;;1.70;99.90;;;;;;6129690;23;20463;-74
2022/12/12 05:12:26;;;;;;;21.17;15.95;;;1.80;99.90;;;;;;6167726;23;20024;-74
2022/12/12 05:14:54;;;;;;;21.75;16.60;;;1.80;99.90;;;;;;6133288;23;20075;-73
2022/12/12 05:17:27;;;;;;;22.10;15.80;;;1.80;99.90;;;;;;6168686;23;20052;-78
2022/12/12 05:19:55;;;;;;;21.08;16.08;;;1.90;99.90;;;;;;6167877;23;20021;-73
2022/12/12 05:22:25;;;;;;;19.77;15.65;;;1.90;99.90;;;;;;6168373;23;20222;-73
2022/12/12 05:24:53;;;;;;;21.02;16.52;;;1.90;99.90;;;;;;6166129;23;20018;-76
2022/12/12 05:27:20;;;;;;;23.20;16.38;;;2.00;99.90;;;;;;6165173;23;20302;-75
2022/12/12 05:29:47;;;;;;;21.80;15.32;;;2.10;99.90;;;;;;6128512;23;20036;-74
2022/12/12 05:32:14;;;;;;;19.40;13.57;;;2.20;99.90;;;;;;6166247;23;20068;-75
2022/12/12 05:34:42;;;;;;;17.25;11.65;;;2.20;99.90;;;;;;6166686;23;20513;-76
2022/12/12 05:37:09;;;;;;;17.25;11.95;;;2.10;1.00;;;;;;6167632;23;20024;-74
2022/12/12 05:39:38;;;;;;;17.98;11.63;;;2.20;1.00;;;;;;6166772;23;20518;-76
2022/12/12 05:42:06;;;;;;;17.58;11.35;;;2.10;1.00;;;;;;6166851;23;20017;-74
2022/12/12 05:44:33;;;;;;;16.50;11.38;;;2.10;42.90;;;;;;6132103;23;20044;-74
2022/12/12 05:47:00;;;;;;;17.08;11.32;;;2.10;99.90;;;;;;6167804;23;20013;-74
2022/12/12 05:49:27;;;;;;;16.17;11.57;;;2.10;99.90;;;;;;6166008;23;20017;-74
2022/12/12 05:51:55;;;;;;;16.83;11.73;;;2.10;1.00;;;;;;6131320;23;20077;-74
2022/12/12 05:54:22;;;;;;;17.52;12.13;;;2.10;1.00;;;;;;6130451;23;20021;-73
2022/12/12 05:56:51;;;;;;;18.95;13.00;;;2.20;99.90;;;;;;6166511;23;20021;-75
2022/12/12 05:59:20;;;;;;;19.83;13.23;;;2.20;1.00;;;;;;6157674;23;20088;-74
2022/12/12 06:01:47;;;;;;;19.17;12.60;;;2.10;1.00;;;;;;6172577;23;20092;-75
2022/12/12 06:04:15;;;;;;;19.48;13.45;;;2.10;69.30;;;;;;6174241;23;20501;-74
2022/12/12 06:06:42;;;;;;;20.60;14.40;;;2.00;87.60;;;;;;6167783;23;20021;-75
2022/12/12 06:09:09;;;;;;;21.33;15.02;;;1.90;1.00;;;;;;6166392;23;20017;-75
2022/12/12 06:11:36;;;;;;;24.33;15.30;;;2.00;1.00;;;;;;6131073;23;20017;-74
2022/12/12 06:14:05;;;;;;;24.48;15.85;;;2.10;1.00;;;;;;6166634;23;20051;-76
2022/12/12 06:16:32;;;;;;;25.02;16.25;;;2.20;1.00;;;;;;6167034;23;20108;-76
2022/12/12 06:19:00;;;;;;;21.23;15.15;;;2.30;99.90;;;;;;6166601;23;20017;-75
2022/12/12 06:21:27;;;;;;;26.58;15.73;;;2.30;90.40;;;;;;6166266;23;20453;-73
2022/12/12 06:23:55;;;;;;;25.75;17.70;;;2.30;1.00;;;;;;6156713;23;20025;-75
2022/12/12 06:26:23;;;;;;;26.90;17.52;;;2.30;1.00;;;;;;6166319;23;20064;-76
2022/12/12 06:28:50;;;;;;;27.65;18.15;;;2.30;1.00;;;;;;6167358;23;20474;-73
2022/12/12 06:31:19;;;;;;;27.95;19.38;;;2.20;99.90;;;;;;6173502;23;20326;-76
2022/12/12 06:33:47;;;;;;;33.85;23.90;;;2.10;99.90;;;;;;6173137;23;20611;-74
2022/12/12 06:36:22;;;;;;;35.65;24.02;;;2.00;99.90;;;;;;6174861;23;20057;-76
2022/12/12 06:38:50;;;;;;;31.30;20.73;;;2.00;1.00;;;;;;6174049;23;20014;-75
2022/12/12 06:41:18;;;;;;;29.75;21.42;;;2.00;1.00;;;;;;6176368;23;20017;-75
2022/12/12 06:43:45;;;;;;;31.13;21.83;;;2.00;1.00;;;;;;6172729;23;20021;-74
2022/12/12 06:46:15;;;;;;;48.08;31.17;;;1.90;14.70;;;;;;6134956;23;20017;-78
2022/12/12 06:48:44;;;;;;;35.78;23.95;;;1.90;1.00;;;;;;6162842;23;20026;-76
2022/12/12 06:51:15;;;;;;;34.78;24.00;;;2.00;1.00;;;;;;6175112;23;20018;-77
2022/12/12 06:53:43;;;;;;;38.20;25.20;;;2.00;1.30;;;;;;6166255;23;20105;-76
2022/12/12 06:56:13;;;;;;;40.75;25.00;;;2.00;1.00;;;;;;6166706;23;20024;-75
2022/12/12 06:58:40;;;;;;;40.13;26.38;;;2.00;99.90;;;;;;6165684;23;20064;-76
2022/12/12 07:01:08;;;;;;;38.00;24.73;;;2.10;1.00;;;;;;6175540;23;20014;-75
2022/12/12 07:03:36;;;;;;;37.10;23.00;;;2.10;1.00;;;;;;6179075;23;20052;-74
2022/12/12 07:06:05;;;;;;;39.92;25.50;;;2.20;99.90;;;;;;6176035;23;20017;-75
2022/12/12 07:08:34;;;;;;;46.25;28.63;;;2.20;1.00;;;;;;6168201;23;20021;-74
2022/12/12 07:11:04;;;;;;;46.63;27.52;;;2.30;1.00;;;;;;6168264;23;20013;-76
2022/12/12 07:13:31;;;;;;;47.75;28.42;;;2.30;1.00;;;;;;6183021;23;20036;-74
2022/12/12 07:15:59;;;;;;;47.45;27.73;;;2.40;1.00;;;;;;6188843;23;20010;-75
2022/12/12 07:18:29;;;;;;;47.55;28.25;;;2.40;99.90;;;;;;6183140;23;20010;-76
2022/12/12 07:20:56;;;;;;;52.60;29.67;;;2.30;1.00;;;;;;6178586;23;20010;-77
2022/12/12 07:23:25;;;;;;;52.17;30.77;;;2.30;1.00;;;;;;6141383;23;20013;-74
2022/12/12 07:25:52;;;;;;;52.33;30.70;;;2.30;1.00;;;;;;6173068;23;20013;-75
2022/12/12 07:28:20;;;;;;;50.00;27.90;;;2.20;1.00;;;;;;6168395;23;20522;-74
2022/12/12 07:30:48;;;;;;;54.15;29.17;;;2.20;1.00;;;;;;6165242;23;20021;-74
2022/12/12 07:33:17;;;;;;;56.15;30.52;;;2.20;99.90;;;;;;6165392;23;20022;-76
2022/12/12 07:35:44;;;;;;;48.08;29.90;;;2.20;99.90;;;;;;6166359;23;20018;-74
2022/12/12 07:38:12;;;;;;;68.53;38.58;;;2.30;99.90;;;;;;6166054;23;20021;-75
2022/12/12 07:40:41;;;;;;;76.47;42.25;;;2.30;99.90;;;;;;6176596;23;20017;-75
2022/12/12 07:43:08;;;;;;;72.65;43.88;;;2.30;1.00;;;;;;6167339;23;20021;-74
2022/12/12 07:45:36;;;;;;;70.90;40.20;;;2.20;1.00;;;;;;6166406;23;20041;-75
2022/12/12 07:48:03;;;;;;;78.20;43.45;;;2.10;99.90;;;;;;6166949;23;20017;-74
2022/12/12 07:50:30;;;;;;;70.25;41.38;;;2.10;1.00;;;;;;6165200;23;20022;-75
2022/12/12 07:52:58;;;;;;;73.50;44.38;;;2.10;1.00;;;;;;6131246;23;20089;-75
2022/12/12 07:55:25;;;;;;;79.03;47.63;;;2.00;1.00;;;;;;6166838;23;20470;-74
2022/12/12 07:57:54;;;;;;;70.78;43.20;;;2.10;99.90;;;;;;6166356;23;20021;-75
2022/12/12 08:00:22;;;;;;;65.68;38.70;;;2.10;99.90;;;;;;6129806;23;20017;-75
2022/12/12 08:02:50;;;;;;;71.03;34.15;;;2.20;99.90;;;;;;6158318;23;20388;-74
2022/12/12 08:05:18;;;;;;;64.97;35.33;;;2.20;1.00;;;;;;6131657;23;20032;-77
2022/12/12 08:07:45;;;;;;;48.78;27.73;;;2.20;1.00;;;;;;6167979;23;20013;-74
2022/12/12 08:10:14;;;;;;;31.83;18.70;;;2.20;1.00;;;;;;6169423;23;20438;-80
2022/12/12 08:12:42;;;;;;;36.80;22.30;;;2.10;99.90;;;;;;6158701;23;20517;-79
2022/12/12 08:15:16;;;;;;;37.13;20.88;;;2.10;1.00;;;;;;6145372;23;20092;-77
2022/12/12 08:17:45;;;;;;;39.47;24.20;;;2.20;1.00;;;;;;6171920;23;20034;-80
2022/12/12 08:20:13;;;;;;;32.05;18.92;;;2.20;1.00;;;;;;6165665;23;20130;-79
2022/12/12 08:22:43;;;;;;;31.40;18.77;;;2.30;1.00;;;;;;6151962;23;20073;-81
2022/12/12 08:25:11;;;;;;;29.80;18.45;;;2.30;1.00;;;;;;6174154;23;20033;-81
2022/12/12 08:27:38;;;;;;;31.45;18.92;;;2.20;99.90;;;;;;6174817;23;20017;-80
2022/12/12 08:30:11;;;;;;;28.20;17.50;;;2.20;99.90;;;;;;6172161;23;20021;-75
2022/12/12 08:32:42;;;;;;;22.13;13.75;;;2.20;97.10;;;;;;6135661;23;20045;-75
2022/12/12 08:35:12;;;;;;;28.52;18.33;;;2.20;69.80;;;;;;6171059;23;20101;-75
2022/12/12 08:37:40;;;;;;;34.90;21.17;;;2.20;1.00;;;;;;6133062;23;20052;-74
2022/12/12 08:40:09;;;;;;;70.85;40.33;;;2.30;1.00;;;;;;6169105;23;20014;-74
2022/12/12 08:42:36;;;;;;;59.08;30.35;;;2.30;1.00;;;;;;6169698;23;20020;-73
2022/12/12 08:45:03;;;;;;;53.95;28.10;;;2.30;1.00;;;;;;6169540;23;20021;-75
2022/12/12 08:47:31;;;;;;;54.20;28.75;;;2.10;1.00;;;;;;6134715;23;20301;-75
2022/12/12 08:50:00;;;;;;;58.55;32.33;;;2.20;99.90;;;;;;6135995;23;20024;-75
2022/12/12 08:52:27;;;;;;;56.03;31.27;;;2.20;1.00;;;;;;6173451;23;20097;-75
2022/12/12 08:54:55;;;;;;;59.90;34.95;;;2.20;1.00;;;;;;6169308;23;20052;-75
2022/12/12 08:57:24;;;;;;;59.05;32.65;;;2.30;1.00;;;;;;6160882;23;20017;-74
2022/12/12 08:59:52;;;;;;;55.75;30.10;;;2.40;1.00;;;;;;6169515;23;20021;-74
2022/12/12 09:02:20;;;;;;;52.65;29.85;;;2.40;1.00;;;;;;6169729;23;20018;-73
2022/12/12 09:04:47;;;;;;;45.38;26.58;;;2.50;1.00;;;;;;6168782;23;20035;-77
2022/12/12 09:07:16;;;;;;;31.00;18.08;;;2.50;1.00;;;;;;6143824;23;20018;-75
2022/12/12 09:09:44;;;;;;;37.90;21.77;;;2.50;99.90;;;;;;6134961;23;20026;-74
2022/12/12 09:12:11;;;;;;;32.22;19.75;;;2.60;99.90;;;;;;6172264;23;20036;-76
2022/12/12 09:14:40;;;;;;;29.92;18.05;;;2.60;99.90;;;;;;6172459;23;20017;-75
2022/12/12 09:17:07;;;;;;;24.42;16.50;;;2.60;1.00;;;;;;6174143;23;20037;-75
2022/12/12 09:19:34;;;;;;;29.60;17.73;;;2.60;1.00;;;;;;6174679;23;20048;-74
2022/12/12 09:22:03;;;;;;;31.90;19.65;;;2.50;1.00;;;;;;6171963;23;20391;-76
2022/12/12 09:24:32;;;;;;;36.15;20.42;;;2.50;1.00;;;;;;6169857;23;20021;-76
2022/12/12 09:26:59;;;;;;;32.78;21.80;;;2.60;1.00;;;;;;6172322;23;20018;-74
2022/12/12 09:29:27;;;;;;;35.75;22.80;;;2.70;1.00;;;;;;6169646;23;20033;-75
2022/12/12 09:31:54;;;;;;;24.00;15.27;;;2.70;1.00;;;;;;6133746;23;20029;-75
2022/12/12 09:34:22;;;;;;;24.83;15.15;;;2.60;1.00;;;;;;6168854;23;20029;-74
2022/12/12 09:36:49;;;;;;;52.10;32.13;;;2.50;1.00;;;;;;6168677;23;20014;-75
2022/12/12 09:39:17;;;;;;;56.55;35.50;;;2.30;1.00;;;;;;6168889;23;20021;-74
2022/12/12 09:41:46;;;;;;;57.80;33.47;;;2.30;99.90;;;;;;6169909;23;20068;-75
2022/12/12 09:44:17;;;;;;;58.15;36.97;;;2.20;1.00;;;;;;6170285;23;20020;-75
2022/12/12 09:46:47;;;;;;;68.35;41.67;;;2.30;1.00;;;;;;6170047;23;20018;-74
2022/12/12 09:49:18;;;;;;;64.57;40.45;;;2.30;1.00;;;;;;6133513;23;20028;-74
2022/12/12 09:51:48;;;;;;;62.95;39.03;;;2.40;1.00;;;;;;6134407;23;20032;-74
2022/12/12 09:54:17;;;;;;;64.80;40.95;;;2.50;1.00;;;;;;6182641;23;20076;-74
2022/12/12 09:56:57;;;;;;;63.50;38.63;;;2.50;1.00;;;;;;6171579;23;20398;-77
2022/12/12 09:59:35;;;;;;;67.43;41.78;;;2.60;5.70;;;;;;6171171;23;20092;-78
2022/12/12 10:02:16;;;;;;;66.45;39.55;;;2.80;75.80;;;;;;6133883;23;20049;-76
2022/12/12 10:04:54;;;;;;;66.63;40.83;;;3.00;64.20;;;;;;6170848;23;20014;-75
2022/12/12 10:07:27;;;;;;;60.28;36.10;;;3.20;1.00;;;;;;6173214;23;20013;-75
2022/12/12 10:10:02;;;;;;;56.60;35.20;;;3.20;1.00;;;;;;6168726;23;20084;-76
2022/12/12 10:12:34;;;;;;;62.30;37.72;;;3.20;1.00;;;;;;6132978;23;20025;-76
2022/12/12 10:15:04;;;;;;;50.88;33.50;;;3.20;1.00;;;;;;6169618;23;20028;-75
2022/12/12 10:17:35;;;;;;;64.78;38.45;;;3.20;1.00;;;;;;6169671;23;20014;-74
2022/12/12 10:20:06;;;;;;;66.45;41.90;;;3.10;1.00;;;;;;6169443;23;20036;-74
2022/12/12 10:22:40;;;;;;;67.45;40.88;;;3.10;1.00;;;;;;6171218;23;20018;-76
2022/12/12 10:25:19;;;;;;;72.22;43.75;;;3.00;1.00;;;;;;6170642;23;20052;-77
2022/12/12 10:27:51;;;;;;;96.00;54.08;;;3.00;1.00;;;;;;6171386;23;20013;-75
2022/12/12 10:30:20;;;;;;;87.68;50.67;;;3.00;1.00;;;;;;6171918;23;20010;-76
2022/12/12 10:33:15;;;;;;;85.25;48.80;;;3.00;1.00;;;;;;6181884;23;20025;-77
2022/12/12 10:35:51;;;;;;;62.72;37.88;;;2.80;1.00;;;;;;6178366;23;20014;-76
2022/12/12 10:38:31;;;;;;;50.65;31.70;;;2.70;1.00;;;;;;6187964;23;20036;-77
2022/12/12 10:41:09;;;;;;;47.00;29.00;;;2.70;99.90;;;;;;6180179;23;20010;-76
2022/12/12 10:43:45;;;;;;;32.65;21.17;;;2.80;99.90;;;;;;6139532;23;20018;-76
2022/12/12 10:46:25;;;;;;;34.05;19.88;;;2.90;1.00;;;;;;6174011;23;20018;-76
2022/12/12 10:48:54;;;;;;;30.27;19.38;;;2.90;99.90;;;;;;6172839;23;20045;-77
2022/12/12 10:51:24;;;;;;;34.28;22.05;;;2.90;99.90;;;;;;6185501;23;20044;-77
2022/12/12 10:53:52;;;;;;;34.67;20.77;;;2.90;99.90;;;;;;6152497;23;20069;-76
2022/12/12 10:56:22;;;;;;;28.73;16.15;;;2.80;43.00;;;;;;6188051;23;20009;-77
2022/12/12 10:58:56;;;;;;;20.58;11.80;;;2.70;1.00;;;;;;6177034;23;20033;-76
2022/12/12 11:01:29;;;;;;;22.23;12.38;;;2.60;1.00;;;;;;6171566;23;20021;-76
2022/12/12 11:04:01;;;;;;;18.73;10.57;;;2.60;1.00;;;;;;6171335;23;20084;-77
2022/12/12 11:06:36;;;;;;;16.63;9.85;;;2.80;1.00;;;;;;6169856;23;20005;-75
2022/12/12 11:09:07;;;;;;;;;;;2.80;1.00;;;;;;6188912;23;20017;-76
2022/12/12 11:11:36;;;;;;;22.63;11.55;;;2.70;1.00;;;;;;6176450;23;19999;-76
2022/12/12 11:14:28;;;;;;;19.25;10.80;;;2.70;1.00;;;;;;6171832;23;20453;-75
2022/12/12 11:16:55;;;;;;;15.93;9.85;;;2.80;1.00;;;;;;6170790;23;20028;-77
2022/12/12 11:19:24;;;;;;;30.42;17.80;;;2.90;1.00;;;;;;6170845;23;20076;-74
2022/12/12 11:21:53;;;;;;;21.25;11.95;;;2.90;1.00;;;;;;6171289;23;20021;-74
2022/12/12 11:24:23;;;;;;;24.42;13.32;;;2.80;1.00;;;;;;6179274;23;20054;-76
2022/12/12 11:26:56;;;;;;;25.58;12.77;;;2.80;1.00;;;;;;6139708;23;20120;-73
2022/12/12 11:29:35;;;;;;;21.35;11.73;;;2.80;1.00;;;;;;6135139;23;20022;-75
2022/12/12 11:32:04;;;;;;;15.18;9.70;;;2.90;1.00;;;;;;6168735;23;20017;-74
2022/12/12 11:34:36;;;;;;;15.38;8.65;;;2.90;1.00;;;;;;6168369;23;20024;-75
2022/12/12 11:37:03;;;;;;;16.52;9.60;;;3.00;1.00;;;;;;6168748;23;20025;-75
2022/12/12 11:39:37;;;;;;;14.52;8.35;;;3.00;1.00;;;;;;6132393;23;20018;-79
2022/12/12 11:42:06;;;;;;;11.32;6.32;;;3.10;1.00;;;;;;6168326;23;20386;-78
2022/12/12 11:44:38;;;;;;;12.65;6.93;;;3.10;1.00;;;;;;6169790;23;20021;-82
2022/12/12 11:47:23;;;;;;;11.10;7.18;;;3.10;1.00;;;;;;6174549;23;20017;-80
2022/12/12 11:49:52;;;;;;;14.52;8.98;;;3.20;1.00;;;;;;6135477;23;20514;-77
2022/12/12 11:52:21;;;;;;;15.00;8.18;;;3.30;1.00;;;;;;6137887;23;20041;-82
2022/12/12 11:54:49;;;;;;;15.90;8.95;;;3.30;1.00;;;;;;6178795;23;20150;-76
2022/12/12 11:57:35;;;;;;;12.80;7.15;;;3.40;1.00;;;;;;6151535;23;20001;-84
2022/12/12 12:00:14;;;;;;;14.18;7.25;;;3.40;1.00;;;;;;6190143;23;20028;-81
2022/12/12 12:03:08;;;;;;;19.05;9.23;;;3.50;1.00;;;;;;6176057;23;20017;-76
2022/12/12 12:05:47;;;;;;;19.80;11.05;;;3.50;1.00;;;;;;6171448;23;20021;-76
2022/12/12 12:08:27;;;;;;;17.00;9.52;;;3.50;1.00;;;;;;6173279;23;20442;-76
2022/12/12 12:11:10;;;;;;;17.65;9.98;;;3.40;99.90;;;;;;6173911;23;20320;-76
2022/12/12 12:14:00;;;;;;;26.60;13.65;;;3.40;99.90;;;;;;6171116;23;20021;-76
2022/12/12 12:16:39;;;;;;;26.60;15.10;;;3.30;99.90;;;;;;6168206;23;20022;-75
2022/12/12 12:19:13;;;;;;;26.45;14.18;;;3.40;99.90;;;;;;6168780;23;20018;-74
2022/12/12 12:21:48;;;;;;;27.75;13.55;;;3.50;99.90;;;;;;6168702;23;20014;-76
2022/12/12 12:24:58;;;;;;;21.70;11.85;;;3.50;99.90;;;;;;6168334;23;20017;-77
2022/12/12 12:27:33;;;;;;;21.30;11.13;;;3.70;1.00;;;;;;6126248;23;20021;-77
2022/12/12 12:30:19;;;;;;;22.65;11.57;;;3.60;99.90;;;;;;6172228;23;20010;-77
2022/12/12 12:33:18;;;;;;;18.92;11.05;;;3.60;99.90;;;;;;6173395;23;20009;-78
2022/12/12 12:35:56;;;;;;;19.85;11.32;;;3.70;99.90;;;;;;6172361;23;20048;-77
2022/12/12 12:38:28;;;;;;;24.92;14.15;;;3.70;99.90;;;;;;6172368;23;20088;-77
2022/12/12 12:41:14;;;;;;;21.77;13.05;;;3.80;99.90;;;;;;6171687;23;20021;-75
2022/12/12 12:43:56;;;;;;;23.48;12.32;;;3.80;99.90;;;;;;6136870;23;20021;-77
2022/12/12 12:46:34;;;;;;;30.90;14.18;;;3.90;99.90;;;;;;6131200;23;20029;-75
2022/12/12 12:49:15;;;;;;;25.90;11.63;;;3.80;99.90;;;;;;6168466;23;20013;-78
2022/12/12 12:51:50;;;;;;;22.10;12.18;;;3.80;99.90;;;;;;6172011;23;20020;-76
2022/12/12 12:54:23;;;;;;;28.92;14.07;;;3.70;99.90;;;;;;6169302;23;20017;-75
2022/12/12 12:56:57;;;;;;;28.75;16.00;;;3.60;99.90;;;;;;6180600;23;20004;-74
2022/12/12 12:59:29;;;;;;;32.53;19.20;;;3.60;99.90;;;;;;6171468;23;20040;-77
2022/12/12 13:02:01;;;;;;;38.92;20.00;;;3.60;99.90;;;;;;6168516;23;20018;-75
2022/12/12 13:04:36;;;;;;;55.53;33.33;;;3.60;1.00;;;;;;6168277;23;20013;-78
2022/12/12 13:07:11;;;;;;;67.70;39.33;;;3.60;1.00;;;;;;6108915;23;20028;-76
2022/12/12 13:09:42;;;;;;;69.10;41.33;;;3.50;99.90;;;;;;6168837;23;20013;-76
2022/12/12 13:12:17;;;;;;;68.60;41.38;;;3.50;99.90;;;;;;6166988;23;20013;-76
2022/12/12 13:14:48;;;;;;;65.22;40.45;;;3.30;99.90;;;;;;6167022;23;20025;-75